メインページ
METAR-TAF:

METAR-TAF

空港 :

アタテュルク国際空港

イスタンブル-アタテュルク, トルコ

緯度: 40-58N, 経度: 028-49E, 海抜: 48m

現時点の気象観測

当レポートは38分前の08:50(UTC)に作成
東/北東の風 16kt、北/北東からの間で変化する
気温 32°C
湿度 34%
気圧 1013 hPa
視程10km以上
1,500メートル以下は雲なし、積乱雲なし

METAR: LTBA 190850Z 06016KT 030V090 CAVOK 32/14 Q1013 NOSIG RMK RWY17L 06018KT 030V090 RWY05 04015KT RWY23 06016KT

時間: 12:28 (09:28 UTC)

予報

当レポートは4時間48分前の04:40(UTC)に作成
予報は19日の 06時(UTC)から 20日の 12時(UTC)まで有効
北/北東の風 14kt
視程10km以上
1,500メートル以下は雲なし、積乱雲なし
19日の 07時(UTC)から 19日の 09時(UTC)まで徐々に
北/北東の風 16kt、最大28ktの突風を伴う
高度3300ftの雲はほとんどない
19日の 12時(UTC)から 19日の 15時(UTC)まで徐々に
視程10km以上
1,500メートル以下は雲なし、積乱雲なし
19日の 17時(UTC)から 19日の 20時(UTC)まで徐々に
北/北東の風 12kt
19日の 22時(UTC)から 20日の 01時(UTC)まで徐々に
高度3300ftの雲はほとんどない
20日の 08時(UTC)から 20日の 11時(UTC)まで徐々に
北/北東の風 15kt、最大27ktの突風を伴う
視程10km以上
1,500メートル以下は雲なし、積乱雲なし

TAF: LTBA 190440Z 1906/2012 03014KT CAVOK BECMG 1907/1909 03016G28KT FEW033 BECMG 1912/1915 CAVOK BECMG 1917/1920 03012KT BECMG 1922/2001 FEW033 BECMG 2008/2011 03015G27KT CAVOK

4,000以上の空港の気象観測と天気予報(METAR報とTAF報)

利用可能な観測所は地図上に黄色い丸と赤い丸で示す。

丸の上にカーソルを重ねると観測所名を参照できる。

次にクリックすると気象観測と天気予報を参照できる。

マップの切り替え:黒色「×」印の緑ボタンをクリックして拡大、「-」印の緑ボタンをクリックして縮小、緑色の三角印をクリックして隣りの地図に切り替え


METAR-TAF: